sensor_id;sensor_type;location;lat;lon;timestamp;pressure;altitude;pressure_sealevel;temperature
44791;BMP280;30510;37.536;-122.304;2022-07-15T00:01:05;101352.06;;;26.60
44791;BMP280;30510;37.536;-122.304;2022-07-15T00:03:31;101353.81;;;26.61
44791;BMP280;30510;37.536;-122.304;2022-07-15T00:05:56;101364.47;;;26.64
44791;BMP280;30510;37.536;-122.304;2022-07-15T00:08:21;101354.34;;;26.64
44791;BMP280;30510;37.536;-122.304;2022-07-15T00:10:47;101352.16;;;26.68
44791;BMP280;30510;37.536;-122.304;2022-07-15T00:13:12;101362.81;;;26.71
44791;BMP280;30510;37.536;-122.304;2022-07-15T00:15:38;101357.47;;;26.69
44791;BMP280;30510;37.536;-122.304;2022-07-15T00:18:04;101367.16;;;26.73
44791;BMP280;30510;37.536;-122.304;2022-07-15T00:20:29;101364.88;;;26.69
44791;BMP280;30510;37.536;-122.304;2022-07-15T00:22:55;101370.88;;;26.64
44791;BMP280;30510;37.536;-122.304;2022-07-15T00:25:20;101374.72;;;26.54
44791;BMP280;30510;37.536;-122.304;2022-07-15T00:27:53;101377.06;;;26.49
44791;BMP280;30510;37.536;-122.304;2022-07-15T00:30:19;101377.06;;;26.49
44791;BMP280;30510;37.536;-122.304;2022-07-15T00:32:44;101373.59;;;26.47
44791;BMP280;30510;37.536;-122.304;2022-07-15T00:35:10;101381.16;;;26.45
44791;BMP280;30510;37.536;-122.304;2022-07-15T00:37:35;101382.25;;;26.52
44791;BMP280;30510;37.536;-122.304;2022-07-15T00:40:01;101372.31;;;26.59
44791;BMP280;30510;37.536;-122.304;2022-07-15T00:42:26;101378.16;;;26.56
44791;BMP280;30510;37.536;-122.304;2022-07-15T00:44:52;101373.25;;;26.50
44791;BMP280;30510;37.536;-122.304;2022-07-15T00:47:17;101379.03;;;26.56
44791;BMP280;30510;37.536;-122.304;2022-07-15T00:49:43;101377.06;;;26.49
44791;BMP280;30510;37.536;-122.304;2022-07-15T00:52:08;101378.41;;;26.45
44791;BMP280;30510;37.536;-122.304;2022-07-15T00:54:33;101386.81;;;26.43
44791;BMP280;30510;37.536;-122.304;2022-07-15T00:56:59;101388.66;;;26.43
44791;BMP280;30510;37.536;-122.304;2022-07-15T00:59:31;101377.59;;;26.35
44791;BMP280;30510;37.536;-122.304;2022-07-15T01:01:58;101379.78;;;26.32
44791;BMP280;30510;37.536;-122.304;2022-07-15T01:04:23;101370.66;;;26.31
44791;BMP280;30510;37.536;-122.304;2022-07-15T01:06:49;101374.81;;;26.35
44791;BMP280;30510;37.536;-122.304;2022-07-15T01:09:15;101381.72;;;26.48
44791;BMP280;30510;37.536;-122.304;2022-07-15T01:11:40;101371.25;;;26.52
44791;BMP280;30510;37.536;-122.304;2022-07-15T01:14:06;101369.91;;;26.56
44791;BMP280;30510;37.536;-122.304;2022-07-15T01:16:31;101373.13;;;26.51
44791;BMP280;30510;37.536;-122.304;2022-07-15T01:18:57;101372.31;;;26.59
44791;BMP280;30510;37.536;-122.304;2022-07-15T01:21:22;101372.97;;;26.53
44791;BMP280;30510;37.536;-122.304;2022-07-15T01:23:48;101374.72;;;26.54
44791;BMP280;30510;37.536;-122.304;2022-07-15T01:26:13;101372.66;;;26.56
44791;BMP280;30510;37.536;-122.304;2022-07-15T01:28:40;101379.03;;;26.56
44791;BMP280;30510;37.536;-122.304;2022-07-15T01:31:05;101378.16;;;26.56
44791;BMP280;30510;37.536;-122.304;2022-07-15T01:33:32;101369.91;;;26.56
44791;BMP280;30510;37.536;-122.304;2022-07-15T01:35:58;101363.56;;;26.55
44791;BMP280;30510;37.536;-122.304;2022-07-15T01:38:24;101364.41;;;26.56
44791;BMP280;30510;37.536;-122.304;2022-07-15T01:40:49;101356.16;;;26.56
44791;BMP280;30510;37.536;-122.304;2022-07-15T01:43:15;101356.16;;;26.56
44791;BMP280;30510;37.536;-122.304;2022-07-15T01:45:43;101363.56;;;26.55
44791;BMP280;30510;37.536;-122.304;2022-07-15T01:48:09;101368.88;;;26.57
44791;BMP280;30510;37.536;-122.304;2022-07-15T01:50:35;101369.91;;;26.56
44791;BMP280;30510;37.536;-122.304;2022-07-15T01:53:00;101375.00;;;26.51
44791;BMP280;30510;37.536;-122.304;2022-07-15T01:55:25;101374.31;;;26.49
44791;BMP280;30510;37.536;-122.304;2022-07-15T01:57:51;101374.47;;;26.47
44791;BMP280;30510;37.536;-122.304;2022-07-15T02:00:16;101377.34;;;26.46
44791;BMP280;30510;37.536;-122.304;2022-07-15T02:02:42;101371.16;;;26.44
44791;BMP280;30510;37.536;-122.304;2022-07-15T02:05:07;101381.44;;;26.42
44791;BMP280;30510;37.536;-122.304;2022-07-15T02:07:33;101373.03;;;26.43
44791;BMP280;30510;37.536;-122.304;2022-07-15T02:09:58;101379.69;;;26.41
44791;BMP280;30510;37.536;-122.304;2022-07-15T02:12:24;101388.09;;;26.40
44791;BMP280;30510;37.536;-122.304;2022-07-15T02:14:49;101385.53;;;26.38
44791;BMP280;30510;37.536;-122.304;2022-07-15T02:17:14;101385.53;;;26.38
44791;BMP280;30510;37.536;-122.304;2022-07-15T02:19:40;101383.78;;;26.37
44791;BMP280;30510;37.536;-122.304;2022-07-15T02:22:05;101393.06;;;26.36
44791;BMP280;30510;37.536;-122.304;2022-07-15T02:24:31;101391.34;;;26.35
44791;BMP280;30510;37.536;-122.304;2022-07-15T02:26:56;101392.19;;;26.36
44791;BMP280;30510;37.536;-122.304;2022-07-15T02:29:21;101389.59;;;26.34
44791;BMP280;30510;37.536;-122.304;2022-07-15T02:31:47;101398.00;;;26.33
44791;BMP280;30510;37.536;-122.304;2022-07-15T02:34:12;101390.94;;;26.30
44791;BMP280;30510;37.536;-122.304;2022-07-15T02:36:38;101391.06;;;26.29
44791;BMP280;30510;37.536;-122.304;2022-07-15T02:39:03;101407.44;;;26.30
44791;BMP280;30510;37.536;-122.304;2022-07-15T02:41:29;101398.47;;;26.28
44791;BMP280;30510;37.536;-122.304;2022-07-15T02:43:55;101397.75;;;26.26
44791;BMP280;30510;37.536;-122.304;2022-07-15T02:46:20;101396.03;;;26.25
44791;BMP280;30510;37.536;-122.304;2022-07-15T02:48:46;101394.31;;;26.24
44791;BMP280;30510;37.536;-122.304;2022-07-15T02:51:11;101398.06;;;26.23
44791;BMP280;30510;37.536;-122.304;2022-07-15T02:53:36;101402.81;;;26.21
44791;BMP280;30510;37.536;-122.304;2022-07-15T02:56:02;101409.47;;;26.19
44791;BMP280;30510;37.536;-122.304;2022-07-15T02:58:28;101405.88;;;26.18
44791;BMP280;30510;37.536;-122.304;2022-07-15T03:00:54;101402.41;;;26.16
44791;BMP280;30510;37.536;-122.304;2022-07-15T03:03:19;101412.69;;;26.14
44791;BMP280;30510;37.536;-122.304;2022-07-15T03:05:45;101404.75;;;26.11
44791;BMP280;30510;37.536;-122.304;2022-07-15T03:08:10;101406.78;;;26.09
44791;BMP280;30510;37.536;-122.304;2022-07-15T03:10:36;101421.53;;;26.08
44791;BMP280;30510;37.536;-122.304;2022-07-15T03:13:02;101408.97;;;26.06
44791;BMP280;30510;37.536;-122.304;2022-07-15T03:15:27;101405.38;;;26.05
44791;BMP280;30510;37.536;-122.304;2022-07-15T03:17:53;101404.66;;;26.03
44791;BMP280;30510;37.536;-122.304;2022-07-15T03:20:18;101417.38;;;26.04
44791;BMP280;30510;37.536;-122.304;2022-07-15T03:22:44;101409.13;;;26.04
44791;BMP280;30510;37.536;-122.304;2022-07-15T03:25:09;101424.91;;;26.02
44791;BMP280;30510;37.536;-122.304;2022-07-15T03:27:35;101427.66;;;26.02
44791;BMP280;30510;37.536;-122.304;2022-07-15T03:30:00;101418.69;;;26.01
44791;BMP280;30510;37.536;-122.304;2022-07-15T03:32:26;101419.69;;;26.00
44791;BMP280;30510;37.536;-122.304;2022-07-15T03:34:52;101432.03;;;25.96
44791;BMP280;30510;37.536;-122.304;2022-07-15T03:37:17;101427.53;;;25.95
44791;BMP280;30510;37.536;-122.304;2022-07-15T03:39:43;101430.28;;;25.95
44791;BMP280;30510;37.536;-122.304;2022-07-15T03:42:08;101429.28;;;25.96
44791;BMP280;30510;37.536;-122.304;2022-07-15T03:44:34;101428.56;;;25.94
44791;BMP280;30510;37.536;-122.304;2022-07-15T03:46:59;101432.31;;;25.93
44791;BMP280;30510;37.536;-122.304;2022-07-15T03:49:25;101426.66;;;25.94
44791;BMP280;30510;37.536;-122.304;2022-07-15T03:51:50;101437.81;;;25.93
44791;BMP280;30510;37.536;-122.304;2022-07-15T03:54:16;101436.09;;;25.92
44791;BMP280;30510;37.536;-122.304;2022-07-15T03:56:41;101436.25;;;25.90
44791;BMP280;30510;37.536;-122.304;2022-07-15T03:59:07;101434.34;;;25.91
44791;BMP280;30510;37.536;-122.304;2022-07-15T04:01:32;101436.41;;;25.89
44791;BMP280;30510;37.536;-122.304;2022-07-15T04:03:58;101433.22;;;25.84
44791;BMP280;30510;37.536;-122.304;2022-07-15T04:06:23;101438.72;;;25.84
44791;BMP280;30510;37.536;-122.304;2022-07-15T04:08:49;101442.66;;;25.81
44791;BMP280;30510;37.536;-122.304;2022-07-15T04:11:14;101441.03;;;25.79
44791;BMP280;30510;37.536;-122.304;2022-07-15T04:13:40;101434.97;;;25.75
44791;BMP280;30510;37.536;-122.304;2022-07-15T04:16:06;101437.88;;;25.74
44791;BMP280;30510;37.536;-122.304;2022-07-15T04:18:32;101432.84;;;25.69
44791;BMP280;30510;37.536;-122.304;2022-07-15T04:20:58;101433.69;;;25.70
44791;BMP280;30510;37.536;-122.304;2022-07-15T04:23:23;101440.66;;;25.64
44791;BMP280;30510;37.536;-122.304;2022-07-15T04:25:49;101446.88;;;25.57
44791;BMP280;30510;37.536;-122.304;2022-07-15T04:28:14;101441.84;;;25.62
44791;BMP280;30510;37.536;-122.304;2022-07-15T04:30:39;101434.97;;;25.57
44791;BMP280;30510;37.536;-122.304;2022-07-15T04:33:05;101448.56;;;25.58
44791;BMP280;30510;37.536;-122.304;2022-07-15T04:35:30;101443.69;;;25.52
44791;BMP280;30510;37.536;-122.304;2022-07-15T04:37:56;101445.41;;;25.53
44791;BMP280;30510;37.536;-122.304;2022-07-15T04:42:46;101448.03;;;25.45
44791;BMP280;30510;37.536;-122.304;2022-07-15T04:45:11;101455.56;;;25.43
44791;BMP280;30510;37.536;-122.304;2022-07-15T04:47:37;101453.94;;;25.41
44791;BMP280;30510;37.536;-122.304;2022-07-15T04:50:03;101455.84;;;25.40
44791;BMP280;30510;37.536;-122.304;2022-07-15T04:52:28;101450.94;;;25.34
44791;BMP280;30510;37.536;-122.304;2022-07-15T04:54:54;101459.91;;;25.36
44791;BMP280;30510;37.536;-122.304;2022-07-15T04:57:19;101454.97;;;25.30
44791;BMP280;30510;37.536;-122.304;2022-07-15T04:59:45;101466.53;;;25.34
44791;BMP280;30510;37.536;-122.304;2022-07-15T05:02:10;101457.91;;;25.29
44791;BMP280;30510;37.536;-122.304;2022-07-15T05:04:36;101468.88;;;25.29
44791;BMP280;30510;37.536;-122.304;2022-07-15T05:07:01;101465.09;;;25.30
44791;BMP280;30510;37.536;-122.304;2022-07-15T05:09:27;101475.38;;;25.28
44791;BMP280;30510;37.536;-122.304;2022-07-15T05:11:52;101470.88;;;25.27
44791;BMP280;30510;37.536;-122.304;2022-07-15T05:14:18;101479.28;;;25.25
44791;BMP280;30510;37.536;-122.304;2022-07-15T05:16:43;101474.06;;;25.22
44791;BMP280;30510;37.536;-122.304;2022-07-15T05:19:09;101475.06;;;25.21
44791;BMP280;30510;37.536;-122.304;2022-07-15T05:21:34;101482.31;;;25.32
44791;BMP280;30510;37.536;-122.304;2022-07-15T05:24:00;101467.13;;;25.28
44791;BMP280;30510;37.536;-122.304;2022-07-15T05:26:25;101477.81;;;25.21
44791;BMP280;30510;37.536;-122.304;2022-07-15T05:28:50;101491.44;;;25.14
44791;BMP280;30510;37.536;-122.304;2022-07-15T05:31:16;101495.31;;;25.11
44791;BMP280;30510;37.536;-122.304;2022-07-15T05:33:41;101496.34;;;25.10
44791;BMP280;30510;37.536;-122.304;2022-07-15T05:36:13;101496.34;;;25.19
44791;BMP280;30510;37.536;-122.304;2022-07-15T05:38:39;101491.69;;;25.11
44791;BMP280;30510;37.536;-122.304;2022-07-15T05:41:05;101487.94;;;25.02
44791;BMP280;30510;37.536;-122.304;2022-07-15T05:43:30;101484.59;;;24.99
44791;BMP280;30510;37.536;-122.304;2022-07-15T05:45:55;101481.00;;;25.08
44791;BMP280;30510;37.536;-122.304;2022-07-15T05:48:21;101484.47;;;25.10
44791;BMP280;30510;37.536;-122.304;2022-07-15T05:50:46;101496.31;;;25.01
44791;BMP280;30510;37.536;-122.304;2022-07-15T05:53:12;101488.50;;;24.96
44791;BMP280;30510;37.536;-122.304;2022-07-15T05:55:37;101498.78;;;24.94
44791;BMP280;30510;37.536;-122.304;2022-07-15T05:58:06;101503.84;;;25.08
44791;BMP280;30510;37.536;-122.304;2022-07-15T06:00:32;101493.88;;;24.98
44791;BMP280;30510;37.536;-122.304;2022-07-15T06:02:57;101498.06;;;25.02
44791;BMP280;30510;37.536;-122.304;2022-07-15T06:05:23;101492.44;;;25.03
44791;BMP280;30510;37.536;-122.304;2022-07-15T06:07:48;101486.03;;;25.03
44791;BMP280;30510;37.536;-122.304;2022-07-15T06:10:14;101487.00;;;24.92
44791;BMP280;30510;37.536;-122.304;2022-07-15T06:12:39;101493.94;;;24.87
44791;BMP280;30510;37.536;-122.304;2022-07-15T06:15:05;101495.81;;;24.86
44791;BMP280;30510;37.536;-122.304;2022-07-15T06:17:30;101486.72;;;24.86
44791;BMP280;30510;37.536;-122.304;2022-07-15T06:19:56;101493.94;;;24.87
44791;BMP280;30510;37.536;-122.304;2022-07-15T06:22:21;101490.06;;;24.89
44791;BMP280;30510;37.536;-122.304;2022-07-15T06:24:47;101493.50;;;24.82
44791;BMP280;30510;37.536;-122.304;2022-07-15T06:27:12;101483.84;;;24.87
44791;BMP280;30510;37.536;-122.304;2022-07-15T06:29:37;101485.13;;;24.83
44791;BMP280;30510;37.536;-122.304;2022-07-15T06:32:03;101480.22;;;24.87
44791;BMP280;30510;37.536;-122.304;2022-07-15T06:34:29;101479.75;;;24.82
44791;BMP280;30510;37.536;-122.304;2022-07-15T06:36:54;101482.53;;;24.91
44791;BMP280;30510;37.536;-122.304;2022-07-15T06:39:19;101484.84;;;24.77
44791;BMP280;30510;37.536;-122.304;2022-07-15T06:41:45;101493.34;;;24.74
44791;BMP280;30510;37.536;-122.304;2022-07-15T06:44:10;101494.66;;;24.70
44791;BMP280;30510;37.536;-122.304;2022-07-15T06:46:36;101493.88;;;24.68
44791;BMP280;30510;37.536;-122.304;2022-07-15T06:49:01;101498.66;;;24.66
44791;BMP280;30510;37.536;-122.304;2022-07-15T06:51:27;101497.66;;;24.67
44791;BMP280;30510;37.536;-122.304;2022-07-15T06:53:52;101492.91;;;24.69
44791;BMP280;30510;37.536;-122.304;2022-07-15T06:56:18;101493.88;;;24.68
44791;BMP280;30510;37.536;-122.304;2022-07-15T06:58:43;101482.06;;;24.68
44791;BMP280;30510;37.536;-122.304;2022-07-15T07:01:08;101487.28;;;24.71
44791;BMP280;30510;37.536;-122.304;2022-07-15T07:03:34;101485.66;;;24.68
44791;BMP280;30510;37.536;-122.304;2022-07-15T07:05:59;101490.41;;;24.66
44791;BMP280;30510;37.536;-122.304;2022-07-15T07:08:25;101489.13;;;24.61
44791;BMP280;30510;37.536;-122.304;2022-07-15T07:10:50;101493.28;;;24.55
44791;BMP280;30510;37.536;-122.304;2022-07-15T07:13:16;101493.03;;;24.58
44791;BMP280;30510;37.536;-122.304;2022-07-15T07:15:41;101479.16;;;24.60
44791;BMP280;30510;37.536;-122.304;2022-07-15T07:18:07;101483.31;;;24.54
44791;BMP280;30510;37.536;-122.304;2022-07-15T07:20:32;101482.16;;;24.57
44791;BMP280;30510;37.536;-122.304;2022-07-15T07:22:58;101480.44;;;24.56
44791;BMP280;30510;37.536;-122.304;2022-07-15T07:25:23;101486.03;;;24.54
44791;BMP280;30510;37.536;-122.304;2022-07-15T07:27:49;101484.06;;;24.56
44791;BMP280;30510;37.536;-122.304;2022-07-15T07:30:14;101480.28;;;24.48
44791;BMP280;30510;37.536;-122.304;2022-07-15T07:32:40;101496.59;;;24.49
44791;BMP280;30510;37.536;-122.304;2022-07-15T07:35:06;101484.72;;;24.49
44791;BMP280;30510;37.536;-122.304;2022-07-15T07:37:35;101489.63;;;24.45
44791;BMP280;30510;37.536;-122.304;2022-07-15T07:40:01;101491.78;;;24.42
44791;BMP280;30510;37.536;-122.304;2022-07-15T07:42:26;101484.84;;;24.38
44791;BMP280;30510;37.536;-122.304;2022-07-15T07:44:51;101491.50;;;24.36
44791;BMP280;30510;37.536;-122.304;2022-07-15T07:47:17;101489.75;;;24.35
44791;BMP280;30510;37.536;-122.304;2022-07-15T07:49:42;101497.75;;;24.27
44791;BMP280;30510;37.536;-122.304;2022-07-15T07:52:08;101489.41;;;24.28
44791;BMP280;30510;37.536;-122.304;2022-07-15T07:54:33;101493.28;;;24.26
44791;BMP280;30510;37.536;-122.304;2022-07-15T07:56:59;101494.28;;;24.25
44791;BMP280;30510;37.536;-122.304;2022-07-15T07:59:24;101491.53;;;24.25
44791;BMP280;30510;37.536;-122.304;2022-07-15T08:01:50;101489.34;;;24.19
44791;BMP280;30510;37.536;-122.304;2022-07-15T08:04:15;101489.34;;;24.19
44791;BMP280;30510;37.536;-122.304;2022-07-15T08:06:41;101485.16;;;24.15
44791;BMP280;30510;37.536;-122.304;2022-07-15T08:09:06;101493.38;;;24.15
44791;BMP280;30510;37.536;-122.304;2022-07-15T08:11:32;101482.69;;;24.12
44791;BMP280;30510;37.536;-122.304;2022-07-15T08:13:57;101479.47;;;24.07
44791;BMP280;30510;37.536;-122.304;2022-07-15T08:16:23;101484.97;;;24.07
44791;BMP280;30510;37.536;-122.304;2022-07-15T08:18:48;101485.66;;;23.99
44791;BMP280;30510;37.536;-122.304;2022-07-15T08:21:14;101478.56;;;23.97
44791;BMP280;30510;37.536;-122.304;2022-07-15T08:23:39;101478.03;;;24.03
44791;BMP280;30510;37.536;-122.304;2022-07-15T08:26:05;101484.78;;;23.99
44791;BMP280;30510;37.536;-122.304;2022-07-15T08:28:30;101493.88;;;23.99
44791;BMP280;30510;37.536;-122.304;2022-07-15T08:30:55;101492.25;;;23.97
44791;BMP280;30510;37.536;-122.304;2022-07-15T08:33:21;101495.16;;;23.96
44791;BMP280;30510;37.536;-122.304;2022-07-15T08:35:46;101492.69;;;23.93
44791;BMP280;30510;37.536;-122.304;2022-07-15T08:38:32;101481.38;;;23.86
44791;BMP280;30510;37.536;-122.304;2022-07-15T08:40:57;101485.75;;;23.89
44791;BMP280;30510;37.536;-122.304;2022-07-15T08:43:23;101495.94;;;23.87
44791;BMP280;30510;37.536;-122.304;2022-07-15T08:45:48;101485.75;;;23.89
44791;BMP280;30510;37.536;-122.304;2022-07-15T08:48:13;101484.94;;;23.77
44791;BMP280;30510;37.536;-122.304;2022-07-15T08:50:39;101482.94;;;23.79
44791;BMP280;30510;37.536;-122.304;2022-07-15T08:53:06;101478.00;;;23.73
44791;BMP280;30510;37.536;-122.304;2022-07-15T08:55:31;101482.06;;;23.79
44791;BMP280;30510;37.536;-122.304;2022-07-15T08:57:57;101466.00;;;23.74
44791;BMP280;30510;37.536;-122.304;2022-07-15T09:00:23;101471.97;;;23.79
44791;BMP280;30510;37.536;-122.304;2022-07-15T09:02:49;101476.25;;;23.72
44791;BMP280;30510;37.536;-122.304;2022-07-15T09:05:22;101471.03;;;23.69
44791;BMP280;30510;37.536;-122.304;2022-07-15T09:10:20;101479.25;;;23.69
44791;BMP280;30510;37.536;-122.304;2022-07-15T09:12:48;101481.72;;;23.72
44791;BMP280;30510;37.536;-122.304;2022-07-15T09:15:32;101480.00;;;23.71
44791;BMP280;30510;37.536;-122.304;2022-07-15T09:20:33;101478.81;;;23.64
44791;BMP280;30510;37.536;-122.304;2022-07-15T09:22:58;101478.03;;;23.62
44791;BMP280;30510;37.536;-122.304;2022-07-15T09:25:25;101480.53;;;23.65
44791;BMP280;30510;37.536;-122.304;2022-07-15T09:27:52;101478.44;;;23.58
44791;BMP280;30510;37.536;-122.304;2022-07-15T09:30:29;101478.03;;;23.62
44791;BMP280;30510;37.536;-122.304;2022-07-15T09:32:57;101473.72;;;23.60
44791;BMP280;30510;37.536;-122.304;2022-07-15T09:35:23;101475.47;;;23.61
44791;BMP280;30510;37.536;-122.304;2022-07-15T09:37:55;101469.63;;;23.54
44791;BMP280;30510;37.536;-122.304;2022-07-15T09:40:20;101480.97;;;23.50
44791;BMP280;30510;37.536;-122.304;2022-07-15T09:43:07;101470.13;;;23.49
44791;BMP280;30510;37.536;-122.304;2022-07-15T09:45:35;101473.47;;;23.52
44791;BMP280;30510;37.536;-122.304;2022-07-15T09:48:10;101479.09;;;23.51
44791;BMP280;30510;37.536;-122.304;2022-07-15T09:50:37;101481.97;;;23.49
44791;BMP280;30510;37.536;-122.304;2022-07-15T09:53:03;101471.66;;;23.42
44791;BMP280;30510;37.536;-122.304;2022-07-15T09:55:29;101479.16;;;23.40
44791;BMP280;30510;37.536;-122.304;2022-07-15T09:57:54;101474.16;;;23.45
44791;BMP280;30510;37.536;-122.304;2022-07-15T10:00:20;101486.50;;;23.39
44791;BMP280;30510;37.536;-122.304;2022-07-15T10:02:45;101478.16;;;23.41
44791;BMP280;30510;37.536;-122.304;2022-07-15T10:05:11;101482.91;;;23.39
44791;BMP280;30510;37.536;-122.304;2022-07-15T10:07:57;101480.28;;;23.37
44791;BMP280;30510;37.536;-122.304;2022-07-15T10:10:24;101471.94;;;23.39
44791;BMP280;30510;37.536;-122.304;2022-07-15T10:12:55;101466.84;;;23.34
44791;BMP280;30510;37.536;-122.304;2022-07-15T10:15:30;101472.47;;;23.33
44791;BMP280;30510;37.536;-122.304;2022-07-15T10:18:19;101474.47;;;23.31
44791;BMP280;30510;37.536;-122.304;2022-07-15T10:24:12;101477.28;;;23.20
44791;BMP280;30510;37.536;-122.304;2022-07-15T10:29:32;101478.97;;;23.21
44791;BMP280;30510;37.536;-122.304;2022-07-15T10:31:58;101488.22;;;23.20
44791;BMP280;30510;37.536;-122.304;2022-07-15T10:34:34;101486.47;;;23.19
44791;BMP280;30510;37.536;-122.304;2022-07-15T10:37:01;101489.63;;;23.14
44791;BMP280;30510;37.536;-122.304;2022-07-15T10:39:28;101487.88;;;23.13
44791;BMP280;30510;37.536;-122.304;2022-07-15T10:41:57;101494.97;;;23.16
44791;BMP280;30510;37.536;-122.304;2022-07-15T10:44:24;101493.22;;;23.15
44791;BMP280;30510;37.536;-122.304;2022-07-15T10:49:33;101500.94;;;23.10
44791;BMP280;30510;37.536;-122.304;2022-07-15T10:52:08;101500.09;;;23.10
44791;BMP280;30510;37.536;-122.304;2022-07-15T10:56:59;101503.19;;;23.05
44791;BMP280;30510;37.536;-122.304;2022-07-15T10:59:25;101499.59;;;23.05
44791;BMP280;30510;37.536;-122.304;2022-07-15T11:04:28;101495.88;;;22.95
44791;BMP280;30510;37.536;-122.304;2022-07-15T11:10:14;101502.72;;;23.00
44791;BMP280;30510;37.536;-122.304;2022-07-15T11:12:15;101507.25;;;22.90
44791;BMP280;30510;37.536;-122.304;2022-07-15T11:19:53;101512.31;;;22.95
44791;BMP280;30510;37.536;-122.304;2022-07-15T11:22:20;101513.69;;;22.89
44791;BMP280;30510;37.536;-122.304;2022-07-15T11:24:46;101511.06;;;22.88
44791;BMP280;30510;37.536;-122.304;2022-07-15T11:27:12;101507.34;;;22.89
44791;BMP280;30510;37.536;-122.304;2022-07-15T11:30:11;101504.72;;;22.87
44791;BMP280;30510;37.536;-122.304;2022-07-15T11:32:30;101500.00;;;22.89
44791;BMP280;30510;37.536;-122.304;2022-07-15T11:34:56;101514.94;;;22.85
44791;BMP280;30510;37.536;-122.304;2022-07-15T11:37:30;101510.19;;;22.87
44791;BMP280;30510;37.536;-122.304;2022-07-15T11:42:34;101508.97;;;22.80
44791;BMP280;30510;37.536;-122.304;2022-07-15T11:44:59;101513.31;;;22.83
44791;BMP280;30510;37.536;-122.304;2022-07-15T11:47:25;101506.34;;;22.79
44791;BMP280;30510;37.536;-122.304;2022-07-15T11:49:50;101513.94;;;22.75
44791;BMP280;30510;37.536;-122.304;2022-07-15T11:52:23;101513.09;;;22.75
44791;BMP280;30510;37.536;-122.304;2022-07-15T11:54:48;101524.41;;;22.71
44791;BMP280;30510;37.536;-122.304;2022-07-15T11:57:14;101516.69;;;22.75
44791;BMP280;30510;37.536;-122.304;2022-07-15T11:59:39;101523.28;;;22.73
44791;BMP280;30510;37.536;-122.304;2022-07-15T12:02:06;101536.25;;;22.71
44791;BMP280;30510;37.536;-122.304;2022-07-15T12:04:32;101517.59;;;22.76
44791;BMP280;30510;37.536;-122.304;2022-07-15T12:06:58;101535.63;;;22.68
44791;BMP280;30510;37.536;-122.304;2022-07-15T12:09:23;101519.81;;;22.71
44791;BMP280;30510;37.536;-122.304;2022-07-15T12:11:49;101527.53;;;22.66
44791;BMP280;30510;37.536;-122.304;2022-07-15T12:14:19;101529.25;;;22.67
44791;BMP280;30510;37.536;-122.304;2022-07-15T12:16:45;101525.66;;;22.67
44791;BMP280;30510;37.536;-122.304;2022-07-15T12:19:15;101524.94;;;22.65
44791;BMP280;30510;37.536;-122.304;2022-07-15T12:21:40;101527.16;;;22.60
44791;BMP280;30510;37.536;-122.304;2022-07-15T12:26:36;101526.53;;;22.56
44791;BMP280;30510;37.536;-122.304;2022-07-15T12:29:02;101533.78;;;22.57
44791;BMP280;30510;37.536;-122.304;2022-07-15T12:31:29;101536.50;;;22.57
44791;BMP280;30510;37.536;-122.304;2022-07-15T12:33:54;101537.88;;;22.52
44791;BMP280;30510;37.536;-122.304;2022-07-15T12:36:21;101532.41;;;22.52
44791;BMP280;30510;37.536;-122.304;2022-07-15T12:41:28;101534.53;;;22.48
44791;BMP280;30510;37.536;-122.304;2022-07-15T12:43:54;101530.66;;;22.51
44791;BMP280;30510;37.536;-122.304;2022-07-15T12:46:20;101541.47;;;22.52
44791;BMP280;30510;37.536;-122.304;2022-07-15T12:48:54;101530.91;;;22.48
44791;BMP280;30510;37.536;-122.304;2022-07-15T12:51:23;101534.78;;;22.45
44791;BMP280;30510;37.536;-122.304;2022-07-15T12:53:49;101538.75;;;22.41
44791;BMP280;30510;37.536;-122.304;2022-07-15T12:56:14;101543.34;;;22.41
44791;BMP280;30510;37.536;-122.304;2022-07-15T12:58:39;101544.47;;;22.38
44791;BMP280;30510;37.536;-122.304;2022-07-15T13:01:12;101541.50;;;22.41
44791;BMP280;30510;37.536;-122.304;2022-07-15T13:03:38;101543.59;;;22.38
44791;BMP280;30510;37.536;-122.304;2022-07-15T13:06:03;101547.31;;;22.37
44791;BMP280;30510;37.536;-122.304;2022-07-15T13:08:30;101547.56;;;22.34
44791;BMP280;30510;37.536;-122.304;2022-07-15T13:10:56;101540.09;;;22.36
44791;BMP280;30510;37.536;-122.304;2022-07-15T13:13:24;101542.09;;;22.34
44791;BMP280;30510;37.536;-122.304;2022-07-15T13:15:50;101543.69;;;22.26
44791;BMP280;30510;37.536;-122.304;2022-07-15T13:18:16;101545.34;;;22.28
44791;BMP280;30510;37.536;-122.304;2022-07-15T13:20:41;101544.59;;;22.26
44791;BMP280;30510;37.536;-122.304;2022-07-15T13:23:07;101547.22;;;22.28
44791;BMP280;30510;37.536;-122.304;2022-07-15T13:25:33;101550.06;;;22.26
44791;BMP280;30510;37.536;-122.304;2022-07-15T13:27:58;101553.28;;;22.20
44791;BMP280;30510;37.536;-122.304;2022-07-15T13:30:24;101546.72;;;22.23
44791;BMP280;30510;37.536;-122.304;2022-07-15T13:32:49;101559.47;;;22.22
44791;BMP280;30510;37.536;-122.304;2022-07-15T13:35:15;101560.63;;;22.20
44791;BMP280;30510;37.536;-122.304;2022-07-15T13:37:40;101559.47;;;22.22
44791;BMP280;30510;37.536;-122.304;2022-07-15T13:40:07;101554.28;;;22.19
44791;BMP280;30510;37.536;-122.304;2022-07-15T13:42:33;101555.78;;;22.23
44791;BMP280;30510;37.536;-122.304;2022-07-15T13:44:58;101546.28;;;22.16
44791;BMP280;30510;37.536;-122.304;2022-07-15T13:47:24;101550.16;;;22.14
44791;BMP280;30510;37.536;-122.304;2022-07-15T13:49:49;101565.41;;;22.16
44791;BMP280;30510;37.536;-122.304;2022-07-15T13:52:15;101564.78;;;22.13
44791;BMP280;30510;37.536;-122.304;2022-07-15T13:54:40;101565.03;;;22.10